sensor_id;sensor_type;location;lat;lon;timestamp;pressure;altitude;pressure_sealevel;temperature;humidity
35694;BME280;21812;55.536;37.664;2023-11-22T00:01:04;99746.16;;;-6.71;60.79
35694;BME280;21812;55.536;37.664;2023-11-22T00:03:30;99745.72;;;-6.79;60.96
35694;BME280;21812;55.536;37.664;2023-11-22T00:05:57;99748.75;;;-6.71;60.81
35694;BME280;21812;55.536;37.664;2023-11-22T00:08:22;99742.81;;;-6.73;60.53
35694;BME280;21812;55.536;37.664;2023-11-22T00:10:48;99750.44;;;-6.70;60.90
35694;BME280;21812;55.536;37.664;2023-11-22T00:13:14;99748.75;;;-6.71;60.61
35694;BME280;21812;55.536;37.664;2023-11-22T00:15:39;99744.84;;;-6.62;60.92
35694;BME280;21812;55.536;37.664;2023-11-22T00:18:05;99744.78;;;-6.60;60.75
35694;BME280;21812;55.536;37.664;2023-11-22T00:20:31;99730.50;;;-6.69;60.58
35694;BME280;21812;55.536;37.664;2023-11-22T00:22:58;99739.88;;;-6.66;60.29
35694;BME280;21812;55.536;37.664;2023-11-22T00:25:23;99745.06;;;-6.66;60.64
35694;BME280;21812;55.536;37.664;2023-11-22T00:27:50;99739.44;;;-6.75;61.02
35694;BME280;21812;55.536;37.664;2023-11-22T00:30:15;99745.63;;;-6.60;61.34
35694;BME280;21812;55.536;37.664;2023-11-22T00:32:41;99741.25;;;-6.59;60.94
35694;BME280;21812;55.536;37.664;2023-11-22T00:35:07;99749.03;;;-6.59;60.98
35694;BME280;21812;55.536;37.664;2023-11-22T00:37:33;99732.69;;;-6.61;60.75
35694;BME280;21812;55.536;37.664;2023-11-22T00:40:02;99737.66;;;-6.57;60.77
35694;BME280;21812;55.536;37.664;2023-11-22T00:42:37;99733.44;;;-6.59;60.71
35694;BME280;21812;55.536;37.664;2023-11-22T00:45:06;99734.66;;;-6.49;60.67
35694;BME280;21812;55.536;37.664;2023-11-22T00:47:32;99737.25;;;-6.49;60.46
35694;BME280;21812;55.536;37.664;2023-11-22T00:49:58;99739.84;;;-6.49;60.17
35694;BME280;21812;55.536;37.664;2023-11-22T00:52:25;99736.25;;;-6.46;60.02
35694;BME280;21812;55.536;37.664;2023-11-22T00:54:51;99740.50;;;-6.45;60.20
35694;BME280;21812;55.536;37.664;2023-11-22T00:57:17;99735.91;;;-6.56;60.32
35694;BME280;21812;55.536;37.664;2023-11-22T00:59:43;99737.75;;;-6.58;60.31
35694;BME280;21812;55.536;37.664;2023-11-22T01:02:09;99736.81;;;-6.57;60.27
35694;BME280;21812;55.536;37.664;2023-11-22T01:04:35;99740.34;;;-6.58;60.48
35694;BME280;21812;55.536;37.664;2023-11-22T01:07:03;99736.66;;;-6.54;60.66
35694;BME280;21812;55.536;37.664;2023-11-22T01:09:32;99733.13;;;-6.53;60.18
35694;BME280;21812;55.536;37.664;2023-11-22T01:11:59;99729.88;;;-6.57;59.87
35694;BME280;21812;55.536;37.664;2023-11-22T01:14:25;99720.66;;;-6.62;60.17
35694;BME280;21812;55.536;37.664;2023-11-22T01:16:52;99725.66;;;-6.59;60.16
35694;BME280;21812;55.536;37.664;2023-11-22T01:19:20;99722.72;;;-6.53;60.32
35694;BME280;21812;55.536;37.664;2023-11-22T01:21:47;99725.31;;;-6.53;59.59
35694;BME280;21812;55.536;37.664;2023-11-22T01:24:13;99726.69;;;-6.46;60.03
35694;BME280;21812;55.536;37.664;2023-11-22T01:26:38;99721.00;;;-6.37;59.93
35694;BME280;21812;55.536;37.664;2023-11-22T01:29:05;99719.31;;;-6.38;59.38
35694;BME280;21812;55.536;37.664;2023-11-22T01:31:31;99720.84;;;-6.34;59.59
35694;BME280;21812;55.536;37.664;2023-11-22T01:33:59;99724.69;;;-6.41;59.19
35694;BME280;21812;55.536;37.664;2023-11-22T01:36:26;99721.91;;;-6.38;59.33
35694;BME280;21812;55.536;37.664;2023-11-22T01:38:54;99719.91;;;-6.33;59.32
35694;BME280;21812;55.536;37.664;2023-11-22T01:41:22;99720.50;;;-6.27;59.26
35694;BME280;21812;55.536;37.664;2023-11-22T01:43:48;99718.50;;;-6.22;58.77
35694;BME280;21812;55.536;37.664;2023-11-22T01:46:25;99710.44;;;-6.18;58.84
35694;BME280;21812;55.536;37.664;2023-11-22T01:48:53;99712.28;;;-6.20;58.21
35694;BME280;21812;55.536;37.664;2023-11-22T01:51:21;99718.31;;;-6.19;58.77
35694;BME280;21812;55.536;37.664;2023-11-22T01:53:50;99725.38;;;-6.21;58.38
35694;BME280;21812;55.536;37.664;2023-11-22T01:56:22;99732.22;;;-6.36;58.37
35694;BME280;21812;55.536;37.664;2023-11-22T01:58:49;99727.63;;;-6.47;58.70
35694;BME280;21812;55.536;37.664;2023-11-22T02:01:15;99727.78;;;-6.50;59.19
35694;BME280;21812;55.536;37.664;2023-11-22T02:03:41;99718.63;;;-6.57;58.80
35694;BME280;21812;55.536;37.664;2023-11-22T02:06:07;99725.50;;;-6.56;59.34
35694;BME280;21812;55.536;37.664;2023-11-22T02:08:35;99726.59;;;-6.60;59.13
35694;BME280;21812;55.536;37.664;2023-11-22T02:11:01;99730.53;;;-6.53;59.05
35694;BME280;21812;55.536;37.664;2023-11-22T02:13:31;99739.75;;;-6.47;59.40
35694;BME280;21812;55.536;37.664;2023-11-22T02:15:58;99735.91;;;-6.56;59.26
35694;BME280;21812;55.536;37.664;2023-11-22T02:18:26;99724.97;;;-6.63;59.30
35694;BME280;21812;55.536;37.664;2023-11-22T02:20:52;99720.31;;;-6.56;59.80
35694;BME280;21812;55.536;37.664;2023-11-22T02:23:17;99726.53;;;-6.43;59.32
35694;BME280;21812;55.536;37.664;2023-11-22T02:25:44;99722.25;;;-6.44;59.16
35694;BME280;21812;55.536;37.664;2023-11-22T02:28:11;99723.00;;;-6.42;59.58
35694;BME280;21812;55.536;37.664;2023-11-22T02:30:37;99720.00;;;-6.34;59.43
35694;BME280;21812;55.536;37.664;2023-11-22T02:33:04;99705.91;;;-6.46;59.06
35694;BME280;21812;55.536;37.664;2023-11-22T02:35:31;99715.53;;;-6.48;59.28
35694;BME280;21812;55.536;37.664;2023-11-22T02:37:58;99721.34;;;-6.43;59.27
35694;BME280;21812;55.536;37.664;2023-11-22T02:40:24;99724.09;;;-6.46;59.17
35694;BME280;21812;55.536;37.664;2023-11-22T02:42:51;99725.03;;;-6.47;59.63
35694;BME280;21812;55.536;37.664;2023-11-22T02:45:28;99717.63;;;-6.55;59.40
35694;BME280;21812;55.536;37.664;2023-11-22T02:47:55;99720.94;;;-6.69;59.84
35694;BME280;21812;55.536;37.664;2023-11-22T02:50:21;99734.78;;;-6.68;59.97
35694;BME280;21812;55.536;37.664;2023-11-22T02:52:47;99737.81;;;-6.60;59.67
35694;BME280;21812;55.536;37.664;2023-11-22T02:55:13;99725.59;;;-6.58;59.75
35694;BME280;21812;55.536;37.664;2023-11-22T02:57:40;99723.25;;;-6.62;59.84
35694;BME280;21812;55.536;37.664;2023-11-22T03:00:08;99733.03;;;-6.68;59.78
35694;BME280;21812;55.536;37.664;2023-11-22T03:02:35;99737.53;;;-6.71;59.97
35694;BME280;21812;55.536;37.664;2023-11-22T03:05:01;99731.22;;;-6.83;60.31
35694;BME280;21812;55.536;37.664;2023-11-22T03:07:30;99731.31;;;-6.84;60.78
35694;BME280;21812;55.536;37.664;2023-11-22T03:09:57;99742.06;;;-6.75;60.33
35694;BME280;21812;55.536;37.664;2023-11-22T03:12:26;99738.03;;;-6.64;60.29
35694;BME280;21812;55.536;37.664;2023-11-22T03:14:52;99731.25;;;-6.67;60.23
35694;BME280;21812;55.536;37.664;2023-11-22T03:17:26;99737.00;;;-6.78;60.06
35694;BME280;21812;55.536;37.664;2023-11-22T03:19:57;99741.44;;;-6.80;60.38
35694;BME280;21812;55.536;37.664;2023-11-22T03:22:23;99733.72;;;-6.64;60.84
35694;BME280;21812;55.536;37.664;2023-11-22T03:24:49;99735.91;;;-6.56;60.12
35694;BME280;21812;55.536;37.664;2023-11-22T03:27:15;99735.66;;;-6.52;60.39
35694;BME280;21812;55.536;37.664;2023-11-22T03:29:41;99727.94;;;-6.53;60.14
35694;BME280;21812;55.536;37.664;2023-11-22T03:32:07;99736.81;;;-6.57;60.32
35694;BME280;21812;55.536;37.664;2023-11-22T03:34:32;99734.00;;;-6.70;60.84
35694;BME280;21812;55.536;37.664;2023-11-22T03:36:58;99739.31;;;-6.72;60.98
35694;BME280;21812;55.536;37.664;2023-11-22T03:39:24;99744.31;;;-6.69;61.13
35694;BME280;21812;55.536;37.664;2023-11-22T03:41:50;99738.22;;;-6.68;60.76
35694;BME280;21812;55.536;37.664;2023-11-22T03:44:16;99735.94;;;-6.74;61.23
35694;BME280;21812;55.536;37.664;2023-11-22T03:46:42;99722.78;;;-6.71;60.97
35694;BME280;21812;55.536;37.664;2023-11-22T03:49:08;99735.91;;;-6.56;61.14
35694;BME280;21812;55.536;37.664;2023-11-22T03:51:35;99742.28;;;-6.46;61.19
35694;BME280;21812;55.536;37.664;2023-11-22T03:54:01;99743.97;;;-6.45;60.44
35694;BME280;21812;55.536;37.664;2023-11-22T03:56:28;99746.88;;;-6.51;60.62
35694;BME280;21812;55.536;37.664;2023-11-22T03:58:54;99739.06;;;-6.67;60.36
35694;BME280;21812;55.536;37.664;2023-11-22T04:01:21;99751.81;;;-6.62;60.55
35694;BME280;21812;55.536;37.664;2023-11-22T04:03:47;99745.28;;;-6.54;60.69
35694;BME280;21812;55.536;37.664;2023-11-22T04:06:17;99749.31;;;-6.48;60.13
35694;BME280;21812;55.536;37.664;2023-11-22T04:08:45;99747.66;;;-6.49;60.00
35694;BME280;21812;55.536;37.664;2023-11-22T04:11:12;99751.72;;;-6.61;59.55
35694;BME280;21812;55.536;37.664;2023-11-22T04:13:38;99746.63;;;-6.62;59.79
35694;BME280;21812;55.536;37.664;2023-11-22T04:16:05;99754.72;;;-6.69;59.75
35694;BME280;21812;55.536;37.664;2023-11-22T04:18:34;99748.94;;;-6.74;59.38
35694;BME280;21812;55.536;37.664;2023-11-22T04:21:02;99749.78;;;-6.73;59.43
35694;BME280;21812;55.536;37.664;2023-11-22T04:23:31;99757.63;;;-6.75;59.39
35694;BME280;21812;55.536;37.664;2023-11-22T04:25:57;99756.72;;;-6.74;59.87
35694;BME280;21812;55.536;37.664;2023-11-22T04:28:24;99757.16;;;-6.65;60.17
35694;BME280;21812;55.536;37.664;2023-11-22T04:30:51;99756.84;;;-6.59;59.86
35694;BME280;21812;55.536;37.664;2023-11-22T04:33:18;99761.88;;;-6.56;59.48
35694;BME280;21812;55.536;37.664;2023-11-22T04:35:43;99759.34;;;-6.58;59.67
35694;BME280;21812;55.536;37.664;2023-11-22T04:38:09;99758.34;;;-6.55;59.94
35694;BME280;21812;55.536;37.664;2023-11-22T04:40:35;99737.56;;;-6.55;60.45
35694;BME280;21812;55.536;37.664;2023-11-22T04:43:01;99747.47;;;-6.46;60.29
35694;BME280;21812;55.536;37.664;2023-11-22T04:45:27;99749.16;;;-6.45;60.23
35694;BME280;21812;55.536;37.664;2023-11-22T04:47:53;99755.88;;;-6.41;59.89
35694;BME280;21812;55.536;37.664;2023-11-22T04:50:19;99758.28;;;-6.38;60.23
35694;BME280;21812;55.536;37.664;2023-11-22T04:52:45;99753.00;;;-6.36;59.64
35694;BME280;21812;55.536;37.664;2023-11-22T04:55:11;99758.88;;;-6.33;59.94
35694;BME280;21812;55.536;37.664;2023-11-22T04:57:36;99753.78;;;-6.34;59.21
35694;BME280;21812;55.536;37.664;2023-11-22T05:00:02;99757.38;;;-6.37;59.51
35694;BME280;21812;55.536;37.664;2023-11-22T05:02:31;99750.25;;;-6.33;60.23
35694;BME280;21812;55.536;37.664;2023-11-22T05:04:56;99757.13;;;-6.32;59.83
35694;BME280;21812;55.536;37.664;2023-11-22T05:07:22;99751.28;;;-6.36;59.27
35694;BME280;21812;55.536;37.664;2023-11-22T05:09:48;99757.22;;;-6.34;60.05
35694;BME280;21812;55.536;37.664;2023-11-22T05:12:13;99763.94;;;-6.30;59.83
35694;BME280;21812;55.536;37.664;2023-11-22T05:14:42;99765.59;;;-6.29;59.86
35694;BME280;21812;55.536;37.664;2023-11-22T05:17:09;99768.19;;;-6.29;59.83
35694;BME280;21812;55.536;37.664;2023-11-22T05:19:35;99776.19;;;-6.32;60.19
35694;BME280;21812;55.536;37.664;2023-11-22T05:22:02;99773.31;;;-6.27;59.77
35694;BME280;21812;55.536;37.664;2023-11-22T05:24:28;99784.25;;;-6.20;59.57
35694;BME280;21812;55.536;37.664;2023-11-22T05:26:54;99785.91;;;-6.19;59.78
35694;BME280;21812;55.536;37.664;2023-11-22T05:29:20;99785.72;;;-6.32;59.55
35694;BME280;21812;55.536;37.664;2023-11-22T05:31:45;99793.50;;;-6.32;59.78
35694;BME280;21812;55.536;37.664;2023-11-22T05:34:11;99786.56;;;-6.32;59.21
35694;BME280;21812;55.536;37.664;2023-11-22T05:36:36;99776.09;;;-6.30;59.62
35694;BME280;21812;55.536;37.664;2023-11-22T05:39:02;99792.94;;;-6.21;59.15
35694;BME280;21812;55.536;37.664;2023-11-22T05:41:29;99772.81;;;-6.34;59.19
35694;BME280;21812;55.536;37.664;2023-11-22T05:43:55;99779.69;;;-6.33;59.03
35694;BME280;21812;55.536;37.664;2023-11-22T05:46:22;99761.06;;;-6.41;59.00
35694;BME280;21812;55.536;37.664;2023-11-22T05:48:54;99789.59;;;-6.23;59.50
35694;BME280;21812;55.536;37.664;2023-11-22T05:51:20;99789.53;;;-6.22;59.04
35694;BME280;21812;55.536;37.664;2023-11-22T05:53:46;99765.78;;;-6.32;59.60
35694;BME280;21812;55.536;37.664;2023-11-22T05:56:12;99786.91;;;-6.22;60.07
35694;BME280;21812;55.536;37.664;2023-11-22T05:58:38;99790.69;;;-6.27;59.22
35694;BME280;21812;55.536;37.664;2023-11-22T06:01:05;99792.06;;;-6.38;59.63
35694;BME280;21812;55.536;37.664;2023-11-22T06:03:32;99798.13;;;-6.37;59.45
35694;BME280;21812;55.536;37.664;2023-11-22T06:05:58;99786.25;;;-6.10;63.61
35694;BME280;21812;55.536;37.664;2023-11-22T06:08:24;99782.59;;;-5.13;62.00
35694;BME280;21812;55.536;37.664;2023-11-22T06:10:50;99767.13;;;-4.14;60.72
35694;BME280;21812;55.536;37.664;2023-11-22T06:13:17;99749.38;;;-3.80;61.74
35694;BME280;21812;55.536;37.664;2023-11-22T06:15:43;99772.53;;;-3.48;56.26
35694;BME280;21812;55.536;37.664;2023-11-22T06:18:09;99750.00;;;-3.09;61.67
35694;BME280;21812;55.536;37.664;2023-11-22T06:20:35;99757.88;;;-1.95;58.74
35694;BME280;21812;55.536;37.664;2023-11-22T06:23:00;99752.97;;;-1.76;53.58
35694;BME280;21812;55.536;37.664;2023-11-22T06:25:26;99765.03;;;-2.10;54.96
35694;BME280;21812;55.536;37.664;2023-11-22T06:27:52;99770.16;;;-1.85;57.18
35694;BME280;21812;55.536;37.664;2023-11-22T06:30:18;99775.53;;;-1.86;53.11
35694;BME280;21812;55.536;37.664;2023-11-22T06:32:44;99775.53;;;-1.62;58.72
35694;BME280;21812;55.536;37.664;2023-11-22T06:35:10;99783.31;;;-1.61;52.54
35694;BME280;21812;55.536;37.664;2023-11-22T06:37:43;99777.69;;;-2.17;51.47
35694;BME280;21812;55.536;37.664;2023-11-22T06:40:10;99774.50;;;-1.97;55.65
35694;BME280;21812;55.536;37.664;2023-11-22T06:42:38;99771.66;;;-2.69;51.10
35694;BME280;21812;55.536;37.664;2023-11-22T06:45:05;99778.31;;;-3.43;51.62
35694;BME280;21812;55.536;37.664;2023-11-22T06:47:36;99787.22;;;-4.02;52.58
35694;BME280;21812;55.536;37.664;2023-11-22T06:50:02;99800.19;;;-4.58;53.33
35694;BME280;21812;55.536;37.664;2023-11-22T06:52:38;99795.84;;;-4.87;54.56
35694;BME280;21812;55.536;37.664;2023-11-22T06:55:05;99797.78;;;-5.05;55.05
35694;BME280;21812;55.536;37.664;2023-11-22T06:57:34;99801.44;;;-5.24;54.95
35694;BME280;21812;55.536;37.664;2023-11-22T07:00:00;99783.53;;;-5.44;55.55
35694;BME280;21812;55.536;37.664;2023-11-22T07:02:35;99803.69;;;-5.48;55.64
35694;BME280;21812;55.536;37.664;2023-11-22T07:05:01;99812.41;;;-5.65;55.44
35694;BME280;21812;55.536;37.664;2023-11-22T07:07:38;99815.88;;;-5.80;56.18
35694;BME280;21812;55.536;37.664;2023-11-22T07:10:05;99818.63;;;-5.83;56.61
35694;BME280;21812;55.536;37.664;2023-11-22T07:12:33;99807.38;;;-6.00;56.92
35694;BME280;21812;55.536;37.664;2023-11-22T07:15:01;99821.47;;;-5.88;56.67
35694;BME280;21812;55.536;37.664;2023-11-22T07:17:29;99822.31;;;-5.87;56.40
35694;BME280;21812;55.536;37.664;2023-11-22T07:19:55;99827.66;;;-5.91;55.82
35694;BME280;21812;55.536;37.664;2023-11-22T07:22:21;99833.06;;;-5.94;55.40
35694;BME280;21812;55.536;37.664;2023-11-22T07:24:49;99835.00;;;-5.97;55.82
35694;BME280;21812;55.536;37.664;2023-11-22T07:27:18;99835.09;;;-5.99;55.42
35694;BME280;21812;55.536;37.664;2023-11-22T07:29:45;99841.59;;;-6.07;55.55
35694;BME280;21812;55.536;37.664;2023-11-22T07:32:13;99843.97;;;-6.03;55.96
35694;BME280;21812;55.536;37.664;2023-11-22T07:34:40;99849.31;;;-6.06;55.10
35694;BME280;21812;55.536;37.664;2023-11-22T07:37:07;99841.91;;;-6.30;55.84
35694;BME280;21812;55.536;37.664;2023-11-22T07:39:36;99850.50;;;-6.12;56.05
35694;BME280;21812;55.536;37.664;2023-11-22T07:42:04;99857.19;;;-6.07;55.58
35694;BME280;21812;55.536;37.664;2023-11-22T07:44:34;99814.69;;;-6.40;55.99
35694;BME280;21812;55.536;37.664;2023-11-22T07:47:02;99860.22;;;-6.15;56.13
35694;BME280;21812;55.536;37.664;2023-11-22T07:49:28;99863.91;;;-6.19;56.51
35694;BME280;21812;55.536;37.664;2023-11-22T07:51:54;99853.34;;;-6.16;56.95
35694;BME280;21812;55.536;37.664;2023-11-22T07:54:22;99841.44;;;-6.20;57.13
35694;BME280;21812;55.536;37.664;2023-11-22T07:56:49;99860.22;;;-6.15;56.93
35694;BME280;21812;55.536;37.664;2023-11-22T07:59:15;99853.34;;;-6.16;56.42
35694;BME280;21812;55.536;37.664;2023-11-22T08:01:44;99857.47;;;-6.12;56.25
35694;BME280;21812;55.536;37.664;2023-11-22T08:04:10;99853.34;;;-6.16;56.04
35694;BME280;21812;55.536;37.664;2023-11-22T08:06:36;99842.47;;;-6.07;55.29
35694;BME280;21812;55.536;37.664;2023-11-22T08:09:02;99840.00;;;-6.10;55.00
35694;BME280;21812;55.536;37.664;2023-11-22T08:11:29;99845.63;;;-6.18;54.49
35694;BME280;21812;55.536;37.664;2023-11-22T08:13:57;99847.31;;;-6.17;54.47
35694;BME280;21812;55.536;37.664;2023-11-22T08:16:25;99834.06;;;-6.12;53.84
35694;BME280;21812;55.536;37.664;2023-11-22T08:18:51;99835.41;;;-6.05;53.77
35694;BME280;21812;55.536;37.664;2023-11-22T08:21:17;99841.53;;;-5.90;53.60
35694;BME280;21812;55.536;37.664;2023-11-22T08:23:47;99839.44;;;-5.83;53.56
35694;BME280;21812;55.536;37.664;2023-11-22T08:26:14;99843.97;;;-5.71;53.13
35694;BME280;21812;55.536;37.664;2023-11-22T08:28:40;99841.19;;;-5.68;53.28
35694;BME280;21812;55.536;37.664;2023-11-22T08:31:06;99839.09;;;-5.77;52.75
35694;BME280;21812;55.536;37.664;2023-11-22T08:33:38;99828.00;;;-5.81;52.85
35694;BME280;21812;55.536;37.664;2023-11-22T08:36:05;99834.06;;;-5.80;52.96
35694;BME280;21812;55.536;37.664;2023-11-22T08:38:31;99834.41;;;-5.71;53.37
35694;BME280;21812;55.536;37.664;2023-11-22T08:41:03;99826.59;;;-5.71;53.13
35694;BME280;21812;55.536;37.664;2023-11-22T08:43:31;99829.97;;;-5.84;52.88
35694;BME280;21812;55.536;37.664;2023-11-22T08:45:58;99834.06;;;-5.80;53.05
35694;BME280;21812;55.536;37.664;2023-11-22T08:48:25;99829.13;;;-5.69;53.10
35694;BME280;21812;55.536;37.664;2023-11-22T08:50:50;99839.84;;;-5.75;53.11
35694;BME280;21812;55.536;37.664;2023-11-22T08:53:19;99835.72;;;-5.79;53.16
35694;BME280;21812;55.536;37.664;2023-11-22T08:55:45;99830.19;;;-5.73;53.47
35694;BME280;21812;55.536;37.664;2023-11-22T08:58:11;99832.28;;;-5.64;53.34
35694;BME280;21812;55.536;37.664;2023-11-22T09:00:37;99826.53;;;-5.69;53.27
35694;BME280;21812;55.536;37.664;2023-11-22T09:03:02;99817.97;;;-5.71;52.96
35694;BME280;21812;55.536;37.664;2023-11-22T09:05:29;99822.63;;;-5.62;52.96
35694;BME280;21812;55.536;37.664;2023-11-22T09:07:54;99817.59;;;-5.49;53.04
35694;BME280;21812;55.536;37.664;2023-11-22T09:10:24;99823.13;;;-5.39;52.95
35694;BME280;21812;55.536;37.664;2023-11-22T09:12:50;99821.13;;;-5.34;52.50
35694;BME280;21812;55.536;37.664;2023-11-22T09:15:16;99819.78;;;-5.41;52.47
35694;BME280;21812;55.536;37.664;2023-11-22T09:17:44;99813.97;;;-5.46;52.45
35694;BME280;21812;55.536;37.664;2023-11-22T09:20:12;99817.28;;;-5.59;52.05
35694;BME280;21812;55.536;37.664;2023-11-22T09:22:48;99812.66;;;-5.70;52.88
35694;BME280;21812;55.536;37.664;2023-11-22T09:27:45;99810.22;;;-5.57;53.09
35694;BME280;21812;55.536;37.664;2023-11-22T09:30:16;99814.22;;;-5.35;52.60
35694;BME280;21812;55.536;37.664;2023-11-22T09:33:10;99813.94;;;-5.15;51.83
35694;BME280;21812;55.536;37.664;2023-11-22T09:35:37;99802.59;;;-5.14;51.79
35694;BME280;21812;55.536;37.664;2023-11-22T09:38:06;99770.25;;;-5.09;51.51
35694;BME280;21812;55.536;37.664;2023-11-22T09:40:35;99814.06;;;-4.72;51.40
35694;BME280;21812;55.536;37.664;2023-11-22T09:43:02;99818.31;;;-4.85;51.22
35694;BME280;21812;55.536;37.664;2023-11-22T09:45:29;99815.47;;;-4.96;52.06
35694;BME280;21812;55.536;37.664;2023-11-22T09:47:56;99817.84;;;-4.77;52.24
35694;BME280;21812;55.536;37.664;2023-11-22T09:50:36;99822.88;;;-4.74;51.93
35694;BME280;21812;55.536;37.664;2023-11-22T09:53:11;99775.84;;;-5.01;51.73
35694;BME280;21812;55.536;37.664;2023-11-22T09:55:39;99804.63;;;-4.88;52.16
35694;BME280;21812;55.536;37.664;2023-11-22T09:58:11;99810.63;;;-5.02;52.07
35694;BME280;21812;55.536;37.664;2023-11-22T10:00:42;99774.25;;;-5.34;52.47
35694;BME280;21812;55.536;37.664;2023-11-22T10:03:09;99789.78;;;-5.33;52.56
35694;BME280;21812;55.536;37.664;2023-11-22T10:05:35;99806.31;;;-5.18;53.03
35694;BME280;21812;55.536;37.664;2023-11-22T10:08:01;99815.19;;;-5.06;52.80
35694;BME280;21812;55.536;37.664;2023-11-22T10:10:30;99782.97;;;-5.35;52.31
35694;BME280;21812;55.536;37.664;2023-11-22T10:12:57;99807.13;;;-5.17;52.59
35694;BME280;21812;55.536;37.664;2023-11-22T10:15:27;99781.03;;;-5.32;53.18
35694;BME280;21812;55.536;37.664;2023-11-22T10:17:54;99806.56;;;-4.92;52.47
35694;BME280;21812;55.536;37.664;2023-11-22T10:20:44;99816.16;;;-4.78;51.04
35694;BME280;21812;55.536;37.664;2023-11-22T10:23:13;99770.47;;;-4.98;51.96
35694;BME280;21812;55.536;37.664;2023-11-22T10:25:51;99772.31;;;-5.00;51.14
35694;BME280;21812;55.536;37.664;2023-11-22T10:28:18;99810.94;;;-4.93;51.50
35694;BME280;21812;55.536;37.664;2023-11-22T10:30:48;99798.47;;;-4.87;51.66
35694;BME280;21812;55.536;37.664;2023-11-22T10:33:18;99817.94;;;-4.79;51.51
35694;BME280;21812;55.536;37.664;2023-11-22T10:35:50;99810.88;;;-4.77;51.69
35694;BME280;21812;55.536;37.664;2023-11-22T10:38:20;99811.34;;;-4.70;51.88
35694;BME280;21812;55.536;37.664;2023-11-22T10:40:46;99825.13;;;-4.54;51.29
35694;BME280;21812;55.536;37.664;2023-11-22T10:43:15;99815.00;;;-4.58;51.53
35694;BME280;21812;55.536;37.664;2023-11-22T10:45:43;99785.31;;;-4.70;50.98
35694;BME280;21812;55.536;37.664;2023-11-22T10:48:15;99815.84;;;-4.43;51.17
35694;BME280;21812;55.536;37.664;2023-11-22T10:50:44;99806.81;;;-4.52;50.75
35694;BME280;21812;55.536;37.664;2023-11-22T10:53:16;99815.38;;;-4.50;50.88
35694;BME280;21812;55.536;37.664;2023-11-22T10:55:46;99804.41;;;-4.41;51.42
35694;BME280;21812;55.536;37.664;2023-11-22T10:58:15;99812.69;;;-4.48;51.17
35694;BME280;21812;55.536;37.664;2023-11-22T11:00:41;99814.22;;;-4.75;51.78
35694;BME280;21812;55.536;37.664;2023-11-22T11:03:18;99815.03;;;-4.74;52.09
35694;BME280;21812;55.536;37.664;2023-11-22T11:05:50;99779.19;;;-4.99;52.05
35694;BME280;21812;55.536;37.664;2023-11-22T11:08:19;99761.59;;;-5.10;52.34
35694;BME280;21812;55.536;37.664;2023-11-22T11:10:47;99773.97;;;-4.99;52.17
35694;BME280;21812;55.536;37.664;2023-11-22T11:13:15;99803.22;;;-4.94;52.63
35694;BME280;21812;55.536;37.664;2023-11-22T11:15:42;99804.41;;;-5.00;52.72
35694;BME280;21812;55.536;37.664;2023-11-22T11:18:15;99776.25;;;-5.23;52.98
35694;BME280;21812;55.536;37.664;2023-11-22T11:20:51;99798.97;;;-5.11;53.04
35694;BME280;21812;55.536;37.664;2023-11-22T11:23:19;99737.22;;;-5.39;53.71
35694;BME280;21812;55.536;37.664;2023-11-22T11:25:49;99752.53;;;-5.19;53.51
35694;BME280;21812;55.536;37.664;2023-11-22T11:28:15;99798.16;;;-4.97;53.41
35694;BME280;21812;55.536;37.664;2023-11-22T11:30:48;99794.44;;;-4.93;54.04
35694;BME280;21812;55.536;37.664;2023-11-22T11:33:33;99790.19;;;-4.80;53.36
35694;BME280;21812;55.536;37.664;2023-11-22T11:36:03;99780.13;;;-4.86;53.70
35694;BME280;21812;55.536;37.664;2023-11-22T11:38:34;99752.00;;;-5.09;53.59
35694;BME280;21812;55.536;37.664;2023-11-22T11:41:11;99782.78;;;-4.72;53.57
35694;BME280;21812;55.536;37.664;2023-11-22T11:43:47;99780.72;;;-4.66;53.23
35694;BME280;21812;55.536;37.664;2023-11-22T11:46:16;99774.38;;;-4.77;53.19
35694;BME280;21812;55.536;37.664;2023-11-22T11:48:50;99755.94;;;-5.02;53.88
35694;BME280;21812;55.536;37.664;2023-11-22T11:51:17;99778.78;;;-4.77;53.62
35694;BME280;21812;55.536;37.664;2023-11-22T11:53:44;99775.16;;;-5.05;53.76
35694;BME280;21812;55.536;37.664;2023-11-22T11:56:10;99795.44;;;-5.10;54.09
35694;BME280;21812;55.536;37.664;2023-11-22T11:58:37;99775.97;;;-5.19;54.41
35694;BME280;21812;55.536;37.664;2023-11-22T12:01:06;99794.78;;;-5.14;54.61
35694;BME280;21812;55.536;37.664;2023-11-22T12:03:33;99783.31;;;-5.25;54.95
35694;BME280;21812;55.536;37.664;2023-11-22T12:06:01;99795.41;;;-5.24;55.19
35694;BME280;21812;55.536;37.664;2023-11-22T12:08:27;99782.28;;;-5.23;55.39
35694;BME280;21812;55.536;37.664;2023-11-22T12:10:56;99794.44;;;-5.07;55.16
35694;BME280;21812;55.536;37.664;2023-11-22T12:13:24;99802.41;;;-5.11;55.32
35694;BME280;21812;55.536;37.664;2023-11-22T12:15:52;99800.69;;;-5.26;55.91
35694;BME280;21812;55.536;37.664;2023-11-22T12:18:22;99809.00;;;-5.19;55.65
35694;BME280;21812;55.536;37.664;2023-11-22T12:20:56;99810.97;;;-5.08;55.35
35694;BME280;21812;55.536;37.664;2023-11-22T12:23:26;99813.25;;;-5.18;55.10
35694;BME280;21812;55.536;37.664;2023-11-22T12:25:58;99813.78;;;-5.27;55.59
35694;BME280;21812;55.536;37.664;2023-11-22T12:28:27;99775.81;;;-5.46;55.21
35694;BME280;21812;55.536;37.664;2023-11-22T12:30:53;99822.44;;;-5.27;55.40
35694;BME280;21812;55.536;37.664;2023-11-22T12:33:19;99807.34;;;-5.36;55.35
35694;BME280;21812;55.536;37.664;2023-11-22T12:35:46;99827.47;;;-5.24;55.38
35694;BME280;21812;55.536;37.664;2023-11-22T12:38:12;99823.94;;;-5.23;54.95
35694;BME280;21812;55.536;37.664;2023-11-22T12:40:42;99822.97;;;-5.36;54.92
35694;BME280;21812;55.536;37.664;2023-11-22T12:43:08;99829.50;;;-5.45;55.47
35694;BME280;21812;55.536;37.664;2023-11-22T12:45:34;99822.72;;;-5.47;55.50
35694;BME280;21812;55.536;37.664;2023-11-22T12:48:24;99817.38;;;-5.44;56.27
35694;BME280;21812;55.536;37.664;2023-11-22T12:50:51;99834.59;;;-5.58;55.96
35694;BME280;21812;55.536;37.664;2023-11-22T12:53:17;99836.41;;;-5.60;56.25
35694;BME280;21812;55.536;37.664;2023-11-22T12:55:49;99797.38;;;-5.76;56.56